createdAt,value
2022-09-26T00:00:47.371Z,4.70
2022-09-26T00:03:15.638Z,4.60
2022-09-26T00:05:45.155Z,3.93
2022-09-26T00:08:13.272Z,4.40
2022-09-26T00:10:41.426Z,4.60
2022-09-26T00:13:09.631Z,4.50
2022-09-26T00:15:37.764Z,4.40
2022-09-26T00:18:06.088Z,5.23
2022-09-26T00:20:34.274Z,5.00
2022-09-26T00:23:03.796Z,5.00
2022-09-26T00:25:31.941Z,5.63
2022-09-26T00:28:00.055Z,5.83
2022-09-26T00:30:28.370Z,5.30
2022-09-26T00:32:56.569Z,5.40
2022-09-26T00:35:24.728Z,5.03
2022-09-26T00:37:52.870Z,5.80
2022-09-26T00:40:26.981Z,5.57
2022-09-26T00:42:55.212Z,6.20
2022-09-26T00:45:23.673Z,5.93
2022-09-26T00:47:57.997Z,6.50
2022-09-26T00:50:28.128Z,5.97
2022-09-26T00:52:58.013Z,6.57
2022-09-26T00:55:31.508Z,6.63
2022-09-26T00:58:01.957Z,6.30
2022-09-26T01:00:30.119Z,6.30
2022-09-26T01:02:58.598Z,6.97
2022-09-26T01:05:26.804Z,7.03
2022-09-26T01:07:57.318Z,7.23
2022-09-26T01:10:26.824Z,6.47
2022-09-26T01:12:57.034Z,6.70
2022-09-26T01:15:25.314Z,6.87
2022-09-26T01:17:53.682Z,6.73
2022-09-26T01:20:28.165Z,6.93
2022-09-26T01:23:15.046Z,7.00
2022-09-26T01:26:06.908Z,6.60
2022-09-26T01:28:46.156Z,7.20
2022-09-26T01:31:19.944Z,6.73
2022-09-26T01:33:55.794Z,7.93
2022-09-26T01:36:38.390Z,6.93
2022-09-26T01:39:15.811Z,6.90
2022-09-26T01:41:49.938Z,7.87
2022-09-26T01:44:26.596Z,7.13
2022-09-26T01:46:58.601Z,7.57
2022-09-26T01:49:29.492Z,7.30
2022-09-26T01:52:00.629Z,7.60
2022-09-26T01:54:30.620Z,8.07
2022-09-26T01:56:59.801Z,8.07
2022-09-26T01:59:29.980Z,7.23
2022-09-26T02:02:00.986Z,7.10
2022-09-26T02:04:30.339Z,6.90
2022-09-26T02:07:02.244Z,7.30
2022-09-26T02:09:34.115Z,7.27
2022-09-26T02:12:04.853Z,7.77
2022-09-26T02:14:33.961Z,7.50
2022-09-26T02:17:07.309Z,7.23
2022-09-26T02:19:37.934Z,7.17
2022-09-26T02:22:06.085Z,7.10
2022-09-26T02:24:34.569Z,6.93
2022-09-26T02:27:02.942Z,6.87
2022-09-26T02:29:32.361Z,7.57
2022-09-26T02:32:03.298Z,7.27
2022-09-26T02:34:33.211Z,7.33
2022-09-26T02:37:01.900Z,6.97
2022-09-26T02:39:30.101Z,7.77
2022-09-26T02:42:02.432Z,7.77
2022-09-26T02:44:44.353Z,8.63
2022-09-26T02:47:19.358Z,7.47
2022-09-26T02:49:56.876Z,7.97
2022-09-26T02:52:35.491Z,8.33
2022-09-26T02:55:10.074Z,8.50
2022-09-26T02:57:43.019Z,8.17
2022-09-26T03:00:17.458Z,8.37
2022-09-26T03:02:49.044Z,8.87
2022-09-26T03:05:21.352Z,8.23
2022-09-26T03:07:52.807Z,9.17
2022-09-26T03:10:21.246Z,9.00
2022-09-26T03:12:49.637Z,8.60
2022-09-26T03:15:18.920Z,9.17
2022-09-26T03:17:49.299Z,8.73
2022-09-26T03:20:20.340Z,8.57
2022-09-26T03:22:48.907Z,8.43
2022-09-26T03:25:18.786Z,8.77
2022-09-26T03:27:47.802Z,8.67
2022-09-26T03:30:16.880Z,9.27
2022-09-26T03:32:45.047Z,8.57
2022-09-26T03:35:13.269Z,8.80
2022-09-26T03:37:42.971Z,8.37
2022-09-26T03:40:12.461Z,8.73
2022-09-26T03:42:40.673Z,8.13
2022-09-26T03:45:10.278Z,8.57
2022-09-26T03:47:39.050Z,8.40
2022-09-26T03:50:07.761Z,8.53
2022-09-26T03:52:36.372Z,7.90
2022-09-26T03:55:06.156Z,7.20
2022-09-26T03:57:34.278Z,8.17
2022-09-26T04:00:02.491Z,8.00
2022-09-26T04:02:30.793Z,8.07
2022-09-26T04:04:59.033Z,7.93
2022-09-26T04:07:27.151Z,7.73
2022-09-26T04:09:55.349Z,7.87
2022-09-26T04:12:24.857Z,8.07
2022-09-26T04:14:53.016Z,7.53
2022-09-26T04:17:21.525Z,7.77
2022-09-26T04:19:49.671Z,7.97
2022-09-26T04:22:18.409Z,7.70
2022-09-26T04:24:46.571Z,7.30
2022-09-26T04:27:15.390Z,7.30
2022-09-26T04:29:45.061Z,7.93
2022-09-26T04:32:13.312Z,7.40
2022-09-26T04:34:41.474Z,6.87
2022-09-26T04:37:10.096Z,7.30
2022-09-26T04:39:38.235Z,6.93
2022-09-26T04:42:06.442Z,7.07
2022-09-26T04:44:34.605Z,7.40
2022-09-26T04:47:04.088Z,7.37
2022-09-26T04:49:32.237Z,6.70
2022-09-26T04:52:00.362Z,6.83
2022-09-26T04:54:28.506Z,6.63
2022-09-26T04:56:56.632Z,6.23
2022-09-26T04:59:24.771Z,6.93
2022-09-26T05:01:53.957Z,6.77
2022-09-26T05:04:27.504Z,6.20
2022-09-26T05:06:59.141Z,6.50
2022-09-26T05:09:27.602Z,5.47
2022-09-26T05:11:55.747Z,5.87
2022-09-26T05:14:23.940Z,5.53
2022-09-26T05:16:52.165Z,5.90
2022-09-26T05:19:21.271Z,5.77
2022-09-26T05:21:50.772Z,5.80
2022-09-26T05:24:36.508Z,5.17
2022-09-26T05:27:07.045Z,4.90
2022-09-26T05:29:35.217Z,5.00
2022-09-26T05:32:04.112Z,4.83
2022-09-26T05:34:32.365Z,4.77
2022-09-26T05:37:01.874Z,4.80
2022-09-26T05:39:47.525Z,4.60
2022-09-26T05:42:15.657Z,4.50
2022-09-26T05:44:43.762Z,4.33
2022-09-26T05:47:13.058Z,3.70
2022-09-26T05:49:41.472Z,3.70
2022-09-26T05:52:10.941Z,3.73
2022-09-26T05:54:39.085Z,3.50
2022-09-26T05:57:07.198Z,2.60
2022-09-26T05:59:35.351Z,2.73
2022-09-26T06:02:06.214Z,2.80
2022-09-26T06:04:34.438Z,2.57
2022-09-26T06:07:02.572Z,2.37
2022-09-26T06:09:32.068Z,2.40
2022-09-26T06:12:00.225Z,2.60
2022-09-26T06:14:29.560Z,2.40
2022-09-26T06:16:57.689Z,2.17
2022-09-26T06:19:25.829Z,2.30
2022-09-26T06:21:53.989Z,2.10
2022-09-26T06:24:22.792Z,1.90
2022-09-26T06:26:52.296Z,2.00
2022-09-26T06:29:20.490Z,2.53
2022-09-26T06:31:48.706Z,1.97
2022-09-26T06:34:16.887Z,1.97
2022-09-26T06:36:46.808Z,1.70
2022-09-26T06:39:15.763Z,1.53
2022-09-26T06:41:44.055Z,1.70
2022-09-26T06:44:13.650Z,1.73
2022-09-26T06:46:41.991Z,1.50
2022-09-26T06:49:10.169Z,1.90
2022-09-26T06:51:38.796Z,1.60
2022-09-26T06:54:06.971Z,1.80
2022-09-26T06:56:35.092Z,1.57
2022-09-26T06:59:03.725Z,1.80
2022-09-26T07:01:33.564Z,1.80
2022-09-26T07:04:01.779Z,1.70
2022-09-26T07:06:29.928Z,1.70
2022-09-26T07:09:02.630Z,1.40
2022-09-26T07:11:50.446Z,1.50
2022-09-26T07:14:20.527Z,1.97
2022-09-26T07:16:51.954Z,1.57
2022-09-26T07:19:20.272Z,1.77
2022-09-26T07:21:49.225Z,1.67
2022-09-26T07:24:17.709Z,2.17
2022-09-26T07:26:45.828Z,1.60
2022-09-26T07:29:14.089Z,2.27
2022-09-26T07:31:42.497Z,1.80
2022-09-26T07:34:17.998Z,2.17
2022-09-26T07:36:47.364Z,2.07
2022-09-26T07:39:15.712Z,3.33
2022-09-26T07:41:46.118Z,2.60
2022-09-26T07:47:20.423Z,1.90
2022-09-26T07:50:07.799Z,2.10
2022-09-26T07:52:35.990Z,2.20
2022-09-26T07:55:04.110Z,1.37
2022-09-26T07:57:34.157Z,1.60
2022-09-26T08:00:02.435Z,1.83
2022-09-26T08:02:34.451Z,1.40
2022-09-26T08:05:05.020Z,1.60
2022-09-26T08:07:33.265Z,2.70
2022-09-26T08:10:03.058Z,1.80
2022-09-26T08:12:36.347Z,1.63
2022-09-26T08:15:06.135Z,1.33
2022-09-26T08:17:34.690Z,1.67
2022-09-26T08:20:04.458Z,1.87
2022-09-26T08:22:32.644Z,1.60
2022-09-26T08:25:01.109Z,1.83
2022-09-26T08:27:33.473Z,1.90
2022-09-26T08:30:02.644Z,1.50
2022-09-26T08:32:31.628Z,1.63
2022-09-26T08:35:00.021Z,1.70
2022-09-26T08:37:30.994Z,1.80
2022-09-26T08:40:00.627Z,1.70
2022-09-26T08:42:34.334Z,1.77
2022-09-26T08:45:29.095Z,2.00
2022-09-26T08:48:03.048Z,2.00
2022-09-26T08:50:34.753Z,1.63
2022-09-26T08:53:05.976Z,2.67
2022-09-26T08:55:35.584Z,1.73
2022-09-26T08:58:05.813Z,1.80
2022-09-26T09:00:35.055Z,2.20
2022-09-26T09:03:05.753Z,1.97
2022-09-26T09:05:35.832Z,1.90
2022-09-26T09:08:08.014Z,1.83
2022-09-26T09:10:43.168Z,1.97
2022-09-26T09:13:16.583Z,2.90
2022-09-26T09:15:50.968Z,2.30
2022-09-26T09:18:24.232Z,2.83
2022-09-26T09:20:55.830Z,2.47
2022-09-26T09:23:34.779Z,1.90
2022-09-26T09:29:11.026Z,2.03
2022-09-26T09:31:40.637Z,1.83
2022-09-26T09:34:11.725Z,2.00
2022-09-26T09:36:42.266Z,2.10
2022-09-26T09:39:15.630Z,1.97
2022-09-26T09:41:46.975Z,3.33
2022-09-26T09:44:28.255Z,2.57
2022-09-26T09:46:56.472Z,2.17
2022-09-26T09:49:25.318Z,1.60
2022-09-26T09:52:00.895Z,1.70
2022-09-26T09:54:46.677Z,1.70
2022-09-26T09:57:23.364Z,1.97
2022-09-26T09:59:56.750Z,2.10
2022-09-26T10:02:29.731Z,1.50
2022-09-26T10:05:01.844Z,1.43
2022-09-26T10:07:30.018Z,1.53
2022-09-26T10:09:58.197Z,1.80
2022-09-26T10:12:30.612Z,1.20
2022-09-26T10:15:02.186Z,1.40
2022-09-26T10:17:31.075Z,1.40
2022-09-26T10:19:59.197Z,1.50
2022-09-26T10:22:32.448Z,1.20
2022-09-26T10:25:06.480Z,1.50
2022-09-26T10:27:39.979Z,1.80
2022-09-26T10:30:25.623Z,1.40
2022-09-26T10:32:56.681Z,1.37
2022-09-26T10:35:25.506Z,1.20
2022-09-26T10:38:00.298Z,1.33
2022-09-26T10:40:47.690Z,1.50
2022-09-26T10:43:25.076Z,1.33
2022-09-26T10:45:55.447Z,1.40
2022-09-26T10:48:24.623Z,1.27
2022-09-26T10:51:00.364Z,1.03
2022-09-26T10:53:30.941Z,2.43
2022-09-26T10:56:02.567Z,1.13
2022-09-26T10:58:32.388Z,1.40
2022-09-26T11:01:01.674Z,1.43
2022-09-26T11:03:35.302Z,1.37
2022-09-26T11:06:03.621Z,1.30
2022-09-26T11:08:32.906Z,1.50
2022-09-26T11:11:03.966Z,2.20
2022-09-26T11:13:40.137Z,1.00
2022-09-26T11:16:10.402Z,1.10
2022-09-26T11:18:44.491Z,1.37
2022-09-26T11:21:28.315Z,1.20
2022-09-26T11:26:53.963Z,1.37
2022-09-26T11:32:15.185Z,1.60
2022-09-26T11:34:43.412Z,1.23
2022-09-26T11:37:30.887Z,1.30
2022-09-26T11:40:09.833Z,1.33
2022-09-26T11:42:54.780Z,1.00
2022-09-26T11:45:33.676Z,1.30
2022-09-26T11:48:10.906Z,1.47
2022-09-26T11:50:40.853Z,1.30
2022-09-26T11:53:20.303Z,1.33
2022-09-26T11:55:55.243Z,1.53
2022-09-26T11:58:27.814Z,1.40
2022-09-26T12:01:01.363Z,1.37
2022-09-26T12:03:56.951Z,1.60
2022-09-26T12:06:34.993Z,1.63
2022-09-26T12:09:11.263Z,1.40
2022-09-26T12:11:42.988Z,1.93
2022-09-26T12:14:17.166Z,1.90
2022-09-26T12:16:51.793Z,4.33
2022-09-26T12:19:23.431Z,1.70
2022-09-26T12:22:13.003Z,1.70
2022-09-26T12:24:44.851Z,2.03
2022-09-26T12:27:15.801Z,1.37
2022-09-26T12:29:46.774Z,1.60
2022-09-26T12:32:27.761Z,1.57
2022-09-26T12:35:08.979Z,1.57
2022-09-26T12:37:49.155Z,1.33
2022-09-26T12:40:24.714Z,1.70
2022-09-26T12:43:05.823Z,1.40
2022-09-26T12:45:54.880Z,1.60
2022-09-26T12:48:31.161Z,1.53
2022-09-26T12:51:06.067Z,1.50
2022-09-26T12:53:45.312Z,1.70
2022-09-26T12:56:17.718Z,1.40
2022-09-26T12:58:55.301Z,1.33
2022-09-26T13:01:32.446Z,1.77
2022-09-26T13:04:12.250Z,1.60
2022-09-26T13:07:02.403Z,1.73
2022-09-26T13:09:44.168Z,2.10
2022-09-26T13:12:19.945Z,2.03
2022-09-26T13:14:57.226Z,1.90
2022-09-26T13:17:26.847Z,3.03
2022-09-26T13:19:59.205Z,2.03
2022-09-26T13:22:34.337Z,1.80
2022-09-26T13:25:07.905Z,1.37
2022-09-26T13:27:38.241Z,1.53
2022-09-26T13:30:08.116Z,1.67
2022-09-26T13:32:42.037Z,1.60
2022-09-26T13:35:16.828Z,1.73
2022-09-26T13:37:56.632Z,1.50
2022-09-26T13:40:34.202Z,1.53
2022-09-26T13:43:09.052Z,1.60
2022-09-26T13:45:44.231Z,1.40
2022-09-26T13:48:16.642Z,1.63
2022-09-26T13:50:49.436Z,1.70
2022-09-26T13:53:26.821Z,1.50
2022-09-26T13:56:14.280Z,1.80
2022-09-26T13:58:43.202Z,1.97
2022-09-26T14:01:27.341Z,1.80
2022-09-26T14:04:17.537Z,1.83
2022-09-26T14:07:00.574Z,1.60
2022-09-26T14:09:40.820Z,1.70
2022-09-26T14:12:19.917Z,1.70
2022-09-26T14:14:52.166Z,1.50
2022-09-26T14:17:44.204Z,1.67
2022-09-26T14:20:17.007Z,1.50
2022-09-26T14:22:51.373Z,1.73
2022-09-26T14:25:38.192Z,1.40
2022-09-26T14:28:19.509Z,1.70
2022-09-26T14:31:02.569Z,1.73
2022-09-26T14:33:30.802Z,1.50
2022-09-26T14:36:13.824Z,1.60
2022-09-26T14:38:42.331Z,1.47
2022-09-26T14:41:18.292Z,1.60
2022-09-26T14:43:48.057Z,1.80
2022-09-26T14:46:18.489Z,1.70
2022-09-26T14:48:47.498Z,1.70
2022-09-26T14:51:23.947Z,1.70
2022-09-26T14:53:55.914Z,1.53
2022-09-26T14:56:32.483Z,1.50
2022-09-26T15:01:55.350Z,1.40
2022-09-26T15:04:25.624Z,1.50
2022-09-26T15:06:54.864Z,1.50
2022-09-26T15:09:24.276Z,1.60
2022-09-26T15:11:55.270Z,1.80
2022-09-26T15:14:27.029Z,1.80
2022-09-26T15:16:57.268Z,1.50
2022-09-26T15:19:28.689Z,1.60
2022-09-26T15:22:00.211Z,1.40
2022-09-26T15:24:29.683Z,1.60
2022-09-26T15:26:59.344Z,1.63
2022-09-26T15:29:28.025Z,1.37
2022-09-26T15:31:57.591Z,1.47
2022-09-26T15:34:30.625Z,1.47
2022-09-26T15:36:59.422Z,1.53
2022-09-26T15:39:42.029Z,1.40
2022-09-26T15:42:37.564Z,1.60
2022-09-26T15:45:17.312Z,1.50
2022-09-26T15:47:46.952Z,1.53
2022-09-26T15:50:17.167Z,1.43
2022-09-26T15:52:47.499Z,1.40
2022-09-26T15:55:18.413Z,1.40
2022-09-26T15:57:47.909Z,1.73
2022-09-26T16:00:17.008Z,1.50
2022-09-26T16:02:46.802Z,1.57
2022-09-26T16:05:15.989Z,1.47
2022-09-26T16:07:48.973Z,1.70
2022-09-26T16:10:25.764Z,1.60
2022-09-26T16:12:54.098Z,1.57
2022-09-26T16:15:24.620Z,1.60
2022-09-26T16:17:55.204Z,1.50
2022-09-26T16:20:28.593Z,1.60
2022-09-26T16:23:01.799Z,1.60
2022-09-26T16:25:34.430Z,1.40
2022-09-26T16:28:04.322Z,1.50
2022-09-26T16:30:42.657Z,1.67
2022-09-26T16:33:34.168Z,1.63
2022-09-26T16:36:06.384Z,1.57
2022-09-26T16:38:35.305Z,1.60
2022-09-26T16:41:07.806Z,1.40
2022-09-26T16:43:37.047Z,1.80
2022-09-26T16:46:09.154Z,1.40
2022-09-26T16:48:40.422Z,1.50
2022-09-26T16:51:16.572Z,1.53
2022-09-26T16:53:45.728Z,1.50
2022-09-26T16:56:15.247Z,1.50
2022-09-26T16:58:47.254Z,1.30
2022-09-26T17:01:33.229Z,1.67
2022-09-26T17:04:02.904Z,1.50
2022-09-26T17:06:31.901Z,1.53
2022-09-26T17:09:03.480Z,1.80
2022-09-26T17:11:31.719Z,1.40
2022-09-26T17:14:00.186Z,1.77
2022-09-26T17:16:29.651Z,2.03
2022-09-26T17:18:58.140Z,2.10
2022-09-26T17:21:28.466Z,1.47
2022-09-26T17:23:56.758Z,1.67
2022-09-26T17:26:25.515Z,1.70
2022-09-26T17:28:54.304Z,1.90
2022-09-26T17:31:22.732Z,1.77
2022-09-26T17:33:52.616Z,1.40
2022-09-26T17:36:23.152Z,1.60
2022-09-26T17:38:53.392Z,1.70
2022-09-26T17:41:22.093Z,2.00
2022-09-26T17:43:58.918Z,1.47
2022-09-26T17:46:27.271Z,1.70
2022-09-26T17:48:56.234Z,1.47
2022-09-26T17:51:25.221Z,1.63
2022-09-26T17:53:57.505Z,1.50
2022-09-26T17:56:26.506Z,1.40
2022-09-26T17:58:57.508Z,1.70
2022-09-26T18:01:26.912Z,1.50
2022-09-26T18:03:57.349Z,1.23
2022-09-26T18:06:26.352Z,1.37
2022-09-26T18:08:58.244Z,1.40
2022-09-26T18:11:27.040Z,1.40
2022-09-26T18:13:56.833Z,1.67
2022-09-26T18:16:25.632Z,1.70
2022-09-26T18:18:53.875Z,1.60
2022-09-26T18:21:23.973Z,1.50
2022-09-26T18:23:52.828Z,1.30
2022-09-26T18:26:26.988Z,1.30
2022-09-26T18:28:56.652Z,1.30
2022-09-26T18:31:28.071Z,1.30
2022-09-26T18:33:56.923Z,1.27
2022-09-26T18:36:25.664Z,1.40
2022-09-26T18:38:53.829Z,2.00
2022-09-26T18:41:24.869Z,1.60
2022-09-26T18:43:55.512Z,2.10
2022-09-26T18:46:23.881Z,1.60
2022-09-26T18:48:52.333Z,2.20
2022-09-26T18:51:20.517Z,1.80
2022-09-26T18:53:48.721Z,2.10
2022-09-26T18:56:34.476Z,2.53
2022-09-26T18:59:04.242Z,2.47
2022-09-26T19:01:34.070Z,2.30
2022-09-26T19:04:03.315Z,2.40
2022-09-26T19:06:32.591Z,2.60
2022-09-26T19:09:01.677Z,2.70
2022-09-26T19:11:32.452Z,2.90
2022-09-26T19:14:02.661Z,2.80
2022-09-26T19:16:32.203Z,2.80
2022-09-26T19:19:00.391Z,4.10
2022-09-26T19:21:31.013Z,5.00
2022-09-26T19:24:00.589Z,4.50
2022-09-26T19:26:31.450Z,4.57
2022-09-26T19:29:00.267Z,5.20
2022-09-26T19:31:28.855Z,4.90
2022-09-26T19:33:58.767Z,4.27
2022-09-26T19:36:26.960Z,4.90
2022-09-26T19:38:55.198Z,5.63
2022-09-26T19:41:23.550Z,6.03
2022-09-26T19:43:51.739Z,5.60
2022-09-26T19:46:25.211Z,5.77
2022-09-26T19:48:53.504Z,6.53
2022-09-26T19:51:23.474Z,6.27
2022-09-26T19:53:51.654Z,5.63
2022-09-26T19:56:19.851Z,5.70
2022-09-26T19:58:48.593Z,6.23
2022-09-26T20:01:18.321Z,5.70
2022-09-26T20:03:46.808Z,5.63
2022-09-26T20:06:16.225Z,5.33
2022-09-26T20:08:45.807Z,5.30
2022-09-26T20:11:14.025Z,5.27
2022-09-26T20:14:00.120Z,5.60
2022-09-26T20:16:28.665Z,5.80
2022-09-26T20:18:57.028Z,5.50
2022-09-26T20:21:28.359Z,6.20
2022-09-26T20:23:58.939Z,5.87
2022-09-26T20:26:27.215Z,5.27
2022-09-26T20:28:55.394Z,5.27
2022-09-26T20:31:24.553Z,5.77
2022-09-26T20:33:53.208Z,6.03
2022-09-26T20:36:25.054Z,5.37
2022-09-26T20:38:55.493Z,5.93
2022-09-26T20:41:26.076Z,6.77
2022-09-26T20:44:01.114Z,6.00
2022-09-26T20:46:30.752Z,6.20
2022-09-26T20:48:59.486Z,6.73
2022-09-26T20:51:29.433Z,6.47
2022-09-26T20:53:59.646Z,8.07
2022-09-26T20:56:29.443Z,6.57
2022-09-26T20:58:57.660Z,6.27
2022-09-26T21:01:28.422Z,6.50
2022-09-26T21:03:58.067Z,7.07
2022-09-26T21:06:28.011Z,6.90
2022-09-26T21:08:56.194Z,6.97
2022-09-26T21:11:24.750Z,6.33
2022-09-26T21:13:54.304Z,6.23
2022-09-26T21:16:23.115Z,6.07
2022-09-26T21:18:52.369Z,6.27
2022-09-26T21:21:22.789Z,5.40
2022-09-26T21:23:51.159Z,5.57
2022-09-26T21:26:20.024Z,6.13
2022-09-26T21:28:48.533Z,5.20
2022-09-26T21:31:22.501Z,6.47
2022-09-26T21:33:51.045Z,5.27
2022-09-26T21:36:20.996Z,4.70
2022-09-26T21:38:49.750Z,5.07
2022-09-26T21:41:17.923Z,5.07
2022-09-26T21:43:47.855Z,4.80
2022-09-26T21:46:17.353Z,4.60
2022-09-26T21:48:46.939Z,4.13
2022-09-26T21:51:15.258Z,5.03
2022-09-26T21:53:45.609Z,4.17
2022-09-26T21:56:15.451Z,3.90
2022-09-26T21:58:43.981Z,3.60
2022-09-26T22:01:14.183Z,3.50
2022-09-26T22:03:44.053Z,3.97
2022-09-26T22:06:13.632Z,4.10
2022-09-26T22:08:42.447Z,3.63
2022-09-26T22:11:10.657Z,3.57
2022-09-26T22:13:39.322Z,3.83
2022-09-26T22:16:08.180Z,3.27
2022-09-26T22:18:37.143Z,3.30
2022-09-26T22:21:05.401Z,3.63
2022-09-26T22:23:35.365Z,3.70
2022-09-26T22:26:03.668Z,3.33
2022-09-26T22:28:31.949Z,3.10
2022-09-26T22:31:02.744Z,3.20
2022-09-26T22:33:31.298Z,3.23
2022-09-26T22:35:59.500Z,3.40
2022-09-26T22:38:27.693Z,3.60
2022-09-26T22:41:00.470Z,3.03
2022-09-26T22:43:28.970Z,3.40
2022-09-26T22:46:03.067Z,3.47
2022-09-26T22:48:32.096Z,3.30
2022-09-26T22:51:00.507Z,3.20
2022-09-26T22:53:28.810Z,2.83
2022-09-26T22:55:57.992Z,3.30
2022-09-26T22:58:27.832Z,2.63
2022-09-26T23:00:56.041Z,2.83
2022-09-26T23:03:24.322Z,2.67
2022-09-26T23:05:52.501Z,2.10
2022-09-26T23:08:20.689Z,2.30
2022-09-26T23:10:51.850Z,1.60
2022-09-26T23:13:20.336Z,1.67
2022-09-26T23:15:49.892Z,2.03
2022-09-26T23:18:18.093Z,1.90
2022-09-26T23:20:47.047Z,1.90
2022-09-26T23:23:16.047Z,1.77
2022-09-26T23:25:47.562Z,1.67
2022-09-26T23:28:15.840Z,2.17
2022-09-26T23:30:44.146Z,1.53
2022-09-26T23:33:13.960Z,1.50
2022-09-26T23:35:42.123Z,1.80
2022-09-26T23:38:10.338Z,1.60
2022-09-26T23:40:39.068Z,1.10
2022-09-26T23:43:07.343Z,1.30
2022-09-26T23:45:36.019Z,1.37
2022-09-26T23:48:04.300Z,1.40
2022-09-26T23:50:33.856Z,1.40
2022-09-26T23:53:06.348Z,1.17
2022-09-26T23:55:35.377Z,1.40
2022-09-26T23:58:03.612Z,1.47
